sensor_id;sensor_type;location;lat;lon;timestamp;P1;durP1;ratioP1;P2;durP2;ratioP2
10013;SDS011;45684;48.358;10.746;2022-11-23T00:00:44;3.80;;;1.87;;
10013;SDS011;45684;48.358;10.746;2022-11-23T00:03:14;3.27;;;2.03;;
10013;SDS011;45684;48.358;10.746;2022-11-23T00:05:42;1.93;;;1.83;;
10013;SDS011;45684;48.358;10.746;2022-11-23T00:08:11;2.30;;;2.10;;
10013;SDS011;45684;48.358;10.746;2022-11-23T00:10:40;2.20;;;2.00;;
10013;SDS011;45684;48.358;10.746;2022-11-23T00:13:08;2.20;;;1.90;;
10013;SDS011;45684;48.358;10.746;2022-11-23T00:15:39;3.13;;;2.47;;
10013;SDS011;45684;48.358;10.746;2022-11-23T00:18:07;3.53;;;2.40;;
10013;SDS011;45684;48.358;10.746;2022-11-23T00:20:37;2.57;;;2.33;;
10013;SDS011;45684;48.358;10.746;2022-11-23T00:23:05;2.77;;;2.13;;
10013;SDS011;45684;48.358;10.746;2022-11-23T00:25:34;2.10;;;1.77;;
10013;SDS011;45684;48.358;10.746;2022-11-23T00:28:02;2.60;;;2.00;;
10013;SDS011;45684;48.358;10.746;2022-11-23T00:30:30;1.97;;;1.87;;
10013;SDS011;45684;48.358;10.746;2022-11-23T00:33:03;2.20;;;2.00;;
10013;SDS011;45684;48.358;10.746;2022-11-23T00:35:31;2.10;;;1.90;;
10013;SDS011;45684;48.358;10.746;2022-11-23T00:37:59;2.23;;;2.03;;
10013;SDS011;45684;48.358;10.746;2022-11-23T00:40:27;2.10;;;1.90;;
10013;SDS011;45684;48.358;10.746;2022-11-23T00:42:57;1.90;;;1.80;;
10013;SDS011;45684;48.358;10.746;2022-11-23T00:45:27;3.03;;;2.10;;
10013;SDS011;45684;48.358;10.746;2022-11-23T00:47:55;2.73;;;2.00;;
10013;SDS011;45684;48.358;10.746;2022-11-23T00:50:24;2.20;;;2.00;;
10013;SDS011;45684;48.358;10.746;2022-11-23T00:52:53;2.10;;;1.90;;
10013;SDS011;45684;48.358;10.746;2022-11-23T00:55:23;1.93;;;1.77;;
10013;SDS011;45684;48.358;10.746;2022-11-23T00:57:50;1.83;;;1.73;;
10013;SDS011;45684;48.358;10.746;2022-11-23T01:00:20;1.93;;;1.77;;
10013;SDS011;45684;48.358;10.746;2022-11-23T01:02:48;2.10;;;1.90;;
10013;SDS011;45684;48.358;10.746;2022-11-23T01:05:17;3.27;;;1.93;;
10013;SDS011;45684;48.358;10.746;2022-11-23T01:07:47;2.73;;;2.17;;
10013;SDS011;45684;48.358;10.746;2022-11-23T01:10:15;1.97;;;1.87;;
10013;SDS011;45684;48.358;10.746;2022-11-23T01:12:43;1.83;;;1.70;;
10013;SDS011;45684;48.358;10.746;2022-11-23T01:15:12;2.23;;;2.03;;
10013;SDS011;45684;48.358;10.746;2022-11-23T01:17:43;2.63;;;2.43;;
10013;SDS011;45684;48.358;10.746;2022-11-23T01:20:11;2.90;;;2.00;;
10013;SDS011;45684;48.358;10.746;2022-11-23T01:22:40;2.50;;;2.00;;
10013;SDS011;45684;48.358;10.746;2022-11-23T01:25:08;1.83;;;1.73;;
10013;SDS011;45684;48.358;10.746;2022-11-23T01:27:39;2.23;;;2.03;;
10013;SDS011;45684;48.358;10.746;2022-11-23T01:30:08;2.13;;;1.83;;
10013;SDS011;45684;48.358;10.746;2022-11-23T01:32:37;2.33;;;1.87;;
10013;SDS011;45684;48.358;10.746;2022-11-23T01:35:08;2.83;;;2.00;;
10013;SDS011;45684;48.358;10.746;2022-11-23T01:37:36;2.10;;;1.90;;
10013;SDS011;45684;48.358;10.746;2022-11-23T01:40:04;1.97;;;1.70;;
10013;SDS011;45684;48.358;10.746;2022-11-23T01:42:42;2.27;;;1.80;;
10013;SDS011;45684;48.358;10.746;2022-11-23T01:48:07;2.13;;;1.80;;
10013;SDS011;45684;48.358;10.746;2022-11-23T01:50:41;2.20;;;2.00;;
10013;SDS011;45684;48.358;10.746;2022-11-23T01:53:11;2.07;;;1.90;;
10013;SDS011;45684;48.358;10.746;2022-11-23T01:55:39;2.17;;;1.97;;
10013;SDS011;45684;48.358;10.746;2022-11-23T01:58:09;2.10;;;2.00;;
10013;SDS011;45684;48.358;10.746;2022-11-23T02:00:41;2.63;;;2.10;;
10013;SDS011;45684;48.358;10.746;2022-11-23T02:03:15;1.83;;;1.70;;
10013;SDS011;45684;48.358;10.746;2022-11-23T02:05:45;1.70;;;1.60;;
10013;SDS011;45684;48.358;10.746;2022-11-23T02:08:15;2.67;;;1.90;;
10013;SDS011;45684;48.358;10.746;2022-11-23T02:10:46;2.03;;;1.90;;
10013;SDS011;45684;48.358;10.746;2022-11-23T02:13:17;1.97;;;1.80;;
10013;SDS011;45684;48.358;10.746;2022-11-23T02:15:45;2.00;;;1.90;;
10013;SDS011;45684;48.358;10.746;2022-11-23T02:18:16;3.57;;;2.27;;
10013;SDS011;45684;48.358;10.746;2022-11-23T02:20:51;1.97;;;1.80;;
10013;SDS011;45684;48.358;10.746;2022-11-23T02:23:23;2.27;;;1.90;;
10013;SDS011;45684;48.358;10.746;2022-11-23T02:26:06;2.30;;;2.10;;
10013;SDS011;45684;48.358;10.746;2022-11-23T02:28:38;2.30;;;2.00;;
10013;SDS011;45684;48.358;10.746;2022-11-23T02:31:10;3.53;;;2.10;;
10013;SDS011;45684;48.358;10.746;2022-11-23T02:33:38;2.40;;;2.20;;
10013;SDS011;45684;48.358;10.746;2022-11-23T02:39:09;3.07;;;2.17;;
10013;SDS011;45684;48.358;10.746;2022-11-23T02:41:41;2.53;;;2.33;;
10013;SDS011;45684;48.358;10.746;2022-11-23T02:46:58;2.93;;;2.73;;
10013;SDS011;45684;48.358;10.746;2022-11-23T02:49:26;2.47;;;2.10;;
10013;SDS011;45684;48.358;10.746;2022-11-23T02:51:55;3.67;;;2.10;;
10013;SDS011;45684;48.358;10.746;2022-11-23T02:54:24;2.57;;;2.37;;
10013;SDS011;45684;48.358;10.746;2022-11-23T02:56:53;2.20;;;1.80;;
10013;SDS011;45684;48.358;10.746;2022-11-23T02:59:22;2.00;;;1.90;;
10013;SDS011;45684;48.358;10.746;2022-11-23T03:01:51;3.47;;;2.20;;
10013;SDS011;45684;48.358;10.746;2022-11-23T03:04:19;2.73;;;2.10;;
10013;SDS011;45684;48.358;10.746;2022-11-23T03:06:53;2.53;;;2.10;;
10013;SDS011;45684;48.358;10.746;2022-11-23T03:09:21;2.60;;;2.23;;
10013;SDS011;45684;48.358;10.746;2022-11-23T03:11:49;2.10;;;2.00;;
10013;SDS011;45684;48.358;10.746;2022-11-23T03:14:18;2.00;;;1.90;;
10013;SDS011;45684;48.358;10.746;2022-11-23T03:16:51;2.30;;;2.10;;
10013;SDS011;45684;48.358;10.746;2022-11-23T03:19:21;2.10;;;1.90;;
10013;SDS011;45684;48.358;10.746;2022-11-23T03:21:50;2.03;;;1.80;;
10013;SDS011;45684;48.358;10.746;2022-11-23T03:24:19;2.23;;;2.00;;
10013;SDS011;45684;48.358;10.746;2022-11-23T03:26:49;3.27;;;1.90;;
10013;SDS011;45684;48.358;10.746;2022-11-23T03:29:20;2.67;;;2.37;;
10013;SDS011;45684;48.358;10.746;2022-11-23T03:31:52;2.30;;;1.80;;
10013;SDS011;45684;48.358;10.746;2022-11-23T03:34:20;2.10;;;1.90;;
10013;SDS011;45684;48.358;10.746;2022-11-23T03:36:50;2.37;;;1.93;;
10013;SDS011;45684;48.358;10.746;2022-11-23T03:39:19;1.83;;;1.73;;
10013;SDS011;45684;48.358;10.746;2022-11-23T03:42:10;2.67;;;1.80;;
10013;SDS011;45684;48.358;10.746;2022-11-23T03:44:40;2.73;;;2.30;;
10013;SDS011;45684;48.358;10.746;2022-11-23T03:47:08;4.10;;;2.50;;
10013;SDS011;45684;48.358;10.746;2022-11-23T03:49:37;4.67;;;3.20;;
10013;SDS011;45684;48.358;10.746;2022-11-23T03:52:06;3.53;;;2.40;;
10013;SDS011;45684;48.358;10.746;2022-11-23T03:54:34;2.47;;;2.27;;
10013;SDS011;45684;48.358;10.746;2022-11-23T03:57:02;2.13;;;1.93;;
10013;SDS011;45684;48.358;10.746;2022-11-23T03:59:31;2.93;;;1.70;;
10013;SDS011;45684;48.358;10.746;2022-11-23T04:02:03;2.90;;;2.60;;
10013;SDS011;45684;48.358;10.746;2022-11-23T04:04:35;3.07;;;2.40;;
10013;SDS011;45684;48.358;10.746;2022-11-23T04:07:07;2.57;;;2.10;;
10013;SDS011;45684;48.358;10.746;2022-11-23T04:09:47;1.83;;;1.63;;
10013;SDS011;45684;48.358;10.746;2022-11-23T04:12:27;2.03;;;1.67;;
10013;SDS011;45684;48.358;10.746;2022-11-23T04:14:54;2.43;;;1.80;;
10013;SDS011;45684;48.358;10.746;2022-11-23T04:17:24;2.90;;;2.00;;
10013;SDS011;45684;48.358;10.746;2022-11-23T04:19:52;2.77;;;2.03;;
10013;SDS011;45684;48.358;10.746;2022-11-23T04:22:22;4.33;;;3.43;;
10013;SDS011;45684;48.358;10.746;2022-11-23T04:24:51;5.23;;;4.53;;
10013;SDS011;45684;48.358;10.746;2022-11-23T04:27:21;4.80;;;3.70;;
10013;SDS011;45684;48.358;10.746;2022-11-23T04:29:49;3.90;;;3.30;;
10013;SDS011;45684;48.358;10.746;2022-11-23T04:32:17;5.00;;;3.03;;
10013;SDS011;45684;48.358;10.746;2022-11-23T04:34:48;4.17;;;2.60;;
10013;SDS011;45684;48.358;10.746;2022-11-23T04:37:17;2.83;;;2.50;;
10013;SDS011;45684;48.358;10.746;2022-11-23T04:39:45;2.43;;;2.23;;
10013;SDS011;45684;48.358;10.746;2022-11-23T04:42:18;2.77;;;2.20;;
10013;SDS011;45684;48.358;10.746;2022-11-23T04:44:59;2.37;;;2.20;;
10013;SDS011;45684;48.358;10.746;2022-11-23T04:47:28;2.50;;;2.13;;
10013;SDS011;45684;48.358;10.746;2022-11-23T04:50:03;3.30;;;2.10;;
10013;SDS011;45684;48.358;10.746;2022-11-23T04:52:32;2.47;;;2.17;;
10013;SDS011;45684;48.358;10.746;2022-11-23T04:55:17;1.80;;;1.70;;
10013;SDS011;45684;48.358;10.746;2022-11-23T04:57:53;1.50;;;1.40;;
10013;SDS011;45684;48.358;10.746;2022-11-23T05:00:23;2.07;;;1.50;;
10013;SDS011;45684;48.358;10.746;2022-11-23T05:02:58;1.50;;;1.40;;
10013;SDS011;45684;48.358;10.746;2022-11-23T05:05:33;2.20;;;1.30;;
10013;SDS011;45684;48.358;10.746;2022-11-23T05:08:03;2.07;;;1.50;;
10013;SDS011;45684;48.358;10.746;2022-11-23T05:11:03;1.77;;;1.67;;
10013;SDS011;45684;48.358;10.746;2022-11-23T05:13:31;1.70;;;1.60;;
10013;SDS011;45684;48.358;10.746;2022-11-23T05:16:00;2.57;;;1.90;;
10013;SDS011;45684;48.358;10.746;2022-11-23T05:18:29;3.10;;;1.80;;
10013;SDS011;45684;48.358;10.746;2022-11-23T05:20:58;1.80;;;1.70;;
10013;SDS011;45684;48.358;10.746;2022-11-23T05:23:29;1.73;;;1.63;;
10013;SDS011;45684;48.358;10.746;2022-11-23T05:25:57;1.70;;;1.60;;
10013;SDS011;45684;48.358;10.746;2022-11-23T05:28:33;2.43;;;1.90;;
10013;SDS011;45684;48.358;10.746;2022-11-23T05:31:08;3.77;;;1.90;;
10013;SDS011;45684;48.358;10.746;2022-11-23T05:33:36;2.40;;;2.20;;
10013;SDS011;45684;48.358;10.746;2022-11-23T05:36:10;3.93;;;2.40;;
10013;SDS011;45684;48.358;10.746;2022-11-23T05:38:41;3.17;;;2.87;;
10013;SDS011;45684;48.358;10.746;2022-11-23T05:41:13;4.57;;;3.90;;
10013;SDS011;45684;48.358;10.746;2022-11-23T05:43:43;5.23;;;3.20;;
10013;SDS011;45684;48.358;10.746;2022-11-23T05:46:21;3.50;;;3.20;;
10013;SDS011;45684;48.358;10.746;2022-11-23T05:48:48;4.13;;;3.10;;
10013;SDS011;45684;48.358;10.746;2022-11-23T05:51:18;3.83;;;3.03;;
10013;SDS011;45684;48.358;10.746;2022-11-23T05:53:48;3.20;;;2.90;;
10013;SDS011;45684;48.358;10.746;2022-11-23T05:56:28;3.87;;;2.80;;
10013;SDS011;45684;48.358;10.746;2022-11-23T05:59:07;2.77;;;2.57;;
10013;SDS011;45684;48.358;10.746;2022-11-23T06:01:37;3.47;;;3.10;;
10013;SDS011;45684;48.358;10.746;2022-11-23T06:04:07;4.43;;;3.63;;
10013;SDS011;45684;48.358;10.746;2022-11-23T06:06:41;3.40;;;3.10;;
10013;SDS011;45684;48.358;10.746;2022-11-23T06:09:09;3.20;;;2.77;;
10013;SDS011;45684;48.358;10.746;2022-11-23T06:11:40;3.80;;;3.47;;
10013;SDS011;45684;48.358;10.746;2022-11-23T06:14:15;3.27;;;2.97;;
10013;SDS011;45684;48.358;10.746;2022-11-23T06:16:44;3.00;;;2.63;;
10013;SDS011;45684;48.358;10.746;2022-11-23T06:19:39;3.30;;;2.50;;
10013;SDS011;45684;48.358;10.746;2022-11-23T06:22:08;2.67;;;2.47;;
10013;SDS011;45684;48.358;10.746;2022-11-23T06:24:43;2.47;;;2.27;;
10013;SDS011;45684;48.358;10.746;2022-11-23T06:27:29;3.27;;;2.20;;
10013;SDS011;45684;48.358;10.746;2022-11-23T06:30:03;2.37;;;2.17;;
10013;SDS011;45684;48.358;10.746;2022-11-23T06:32:35;4.20;;;2.73;;
10013;SDS011;45684;48.358;10.746;2022-11-23T06:35:03;4.87;;;3.47;;
10013;SDS011;45684;48.358;10.746;2022-11-23T06:37:35;4.30;;;3.47;;
10013;SDS011;45684;48.358;10.746;2022-11-23T06:40:04;5.93;;;3.87;;
10013;SDS011;45684;48.358;10.746;2022-11-23T06:42:35;3.40;;;2.80;;
10013;SDS011;45684;48.358;10.746;2022-11-23T06:45:12;4.83;;;3.07;;
10013;SDS011;45684;48.358;10.746;2022-11-23T06:47:44;4.33;;;3.13;;
10013;SDS011;45684;48.358;10.746;2022-11-23T06:50:13;4.30;;;3.70;;
10013;SDS011;45684;48.358;10.746;2022-11-23T06:52:48;4.73;;;3.50;;
10013;SDS011;45684;48.358;10.746;2022-11-23T06:55:30;3.83;;;3.30;;
10013;SDS011;45684;48.358;10.746;2022-11-23T06:57:58;2.60;;;2.40;;
10013;SDS011;45684;48.358;10.746;2022-11-23T07:00:29;3.93;;;2.43;;
10013;SDS011;45684;48.358;10.746;2022-11-23T07:02:56;3.30;;;2.10;;
10013;SDS011;45684;48.358;10.746;2022-11-23T07:05:28;2.07;;;1.90;;
10013;SDS011;45684;48.358;10.746;2022-11-23T07:08:00;2.10;;;1.80;;
10013;SDS011;45684;48.358;10.746;2022-11-23T07:10:29;3.30;;;2.13;;
10013;SDS011;45684;48.358;10.746;2022-11-23T07:13:02;3.40;;;2.20;;
10013;SDS011;45684;48.358;10.746;2022-11-23T07:15:32;4.23;;;2.40;;
10013;SDS011;45684;48.358;10.746;2022-11-23T07:18:01;3.50;;;2.70;;
10013;SDS011;45684;48.358;10.746;2022-11-23T07:20:31;2.70;;;2.50;;
10013;SDS011;45684;48.358;10.746;2022-11-23T07:23:00;2.87;;;2.40;;
10013;SDS011;45684;48.358;10.746;2022-11-23T07:25:31;2.20;;;2.00;;
10013;SDS011;45684;48.358;10.746;2022-11-23T07:28:01;2.90;;;2.30;;
10013;SDS011;45684;48.358;10.746;2022-11-23T07:30:34;2.80;;;2.50;;
10013;SDS011;45684;48.358;10.746;2022-11-23T07:33:04;3.40;;;3.10;;
10013;SDS011;45684;48.358;10.746;2022-11-23T07:35:40;4.27;;;3.77;;
10013;SDS011;45684;48.358;10.746;2022-11-23T07:38:13;4.87;;;4.47;;
10013;SDS011;45684;48.358;10.746;2022-11-23T07:40:41;5.10;;;4.27;;
10013;SDS011;45684;48.358;10.746;2022-11-23T07:43:22;5.97;;;4.93;;
10013;SDS011;45684;48.358;10.746;2022-11-23T07:45:53;7.03;;;5.37;;
10013;SDS011;45684;48.358;10.746;2022-11-23T07:48:23;7.50;;;5.47;;
10013;SDS011;45684;48.358;10.746;2022-11-23T07:50:52;9.63;;;7.13;;
10013;SDS011;45684;48.358;10.746;2022-11-23T07:53:22;8.90;;;7.03;;
10013;SDS011;45684;48.358;10.746;2022-11-23T07:55:53;11.60;;;7.43;;
10013;SDS011;45684;48.358;10.746;2022-11-23T07:58:22;11.87;;;9.30;;
10013;SDS011;45684;48.358;10.746;2022-11-23T08:00:51;12.13;;;9.13;;
10013;SDS011;45684;48.358;10.746;2022-11-23T08:03:19;10.37;;;8.93;;
10013;SDS011;45684;48.358;10.746;2022-11-23T08:05:55;9.47;;;7.70;;
10013;SDS011;45684;48.358;10.746;2022-11-23T08:08:25;8.83;;;7.30;;
10013;SDS011;45684;48.358;10.746;2022-11-23T08:10:55;8.27;;;6.43;;
10013;SDS011;45684;48.358;10.746;2022-11-23T08:13:23;9.57;;;8.10;;
10013;SDS011;45684;48.358;10.746;2022-11-23T08:15:51;7.83;;;6.83;;
10013;SDS011;45684;48.358;10.746;2022-11-23T08:18:21;7.97;;;7.17;;
10013;SDS011;45684;48.358;10.746;2022-11-23T08:20:49;7.30;;;5.53;;
10013;SDS011;45684;48.358;10.746;2022-11-23T08:23:20;6.37;;;5.70;;
10013;SDS011;45684;48.358;10.746;2022-11-23T08:25:54;7.53;;;6.50;;
10013;SDS011;45684;48.358;10.746;2022-11-23T08:28:23;10.07;;;7.53;;
10013;SDS011;45684;48.358;10.746;2022-11-23T08:30:51;14.67;;;11.00;;
10013;SDS011;45684;48.358;10.746;2022-11-23T08:33:20;15.77;;;12.17;;
10013;SDS011;45684;48.358;10.746;2022-11-23T08:35:50;23.07;;;15.33;;
10013;SDS011;45684;48.358;10.746;2022-11-23T08:38:20;25.20;;;18.73;;
10013;SDS011;45684;48.358;10.746;2022-11-23T08:40:48;24.67;;;16.90;;
10013;SDS011;45684;48.358;10.746;2022-11-23T08:43:19;15.20;;;10.57;;
10013;SDS011;45684;48.358;10.746;2022-11-23T08:45:49;7.40;;;6.70;;
10013;SDS011;45684;48.358;10.746;2022-11-23T08:48:30;5.27;;;4.77;;
10013;SDS011;45684;48.358;10.746;2022-11-23T08:50:59;4.70;;;3.70;;
10013;SDS011;45684;48.358;10.746;2022-11-23T08:53:27;3.93;;;3.37;;
10013;SDS011;45684;48.358;10.746;2022-11-23T08:55:55;4.03;;;3.20;;
10013;SDS011;45684;48.358;10.746;2022-11-23T08:58:28;3.70;;;3.20;;
10013;SDS011;45684;48.358;10.746;2022-11-23T09:00:56;4.33;;;2.80;;
10013;SDS011;45684;48.358;10.746;2022-11-23T09:03:23;3.40;;;2.73;;
10013;SDS011;45684;48.358;10.746;2022-11-23T09:05:51;2.80;;;2.60;;
10013;SDS011;45684;48.358;10.746;2022-11-23T09:08:21;3.00;;;2.50;;
10013;SDS011;45684;48.358;10.746;2022-11-23T09:10:49;3.30;;;2.73;;
10013;SDS011;45684;48.358;10.746;2022-11-23T09:13:18;3.13;;;2.43;;
10013;SDS011;45684;48.358;10.746;2022-11-23T09:15:48;3.80;;;2.73;;
10013;SDS011;45684;48.358;10.746;2022-11-23T09:18:16;3.50;;;2.67;;
10013;SDS011;45684;48.358;10.746;2022-11-23T09:20:44;2.90;;;2.60;;
10013;SDS011;45684;48.358;10.746;2022-11-23T09:23:12;2.60;;;2.40;;
10013;SDS011;45684;48.358;10.746;2022-11-23T09:25:40;3.73;;;3.20;;
10013;SDS011;45684;48.358;10.746;2022-11-23T09:28:08;3.50;;;2.80;;
10013;SDS011;45684;48.358;10.746;2022-11-23T09:30:37;2.13;;;1.90;;
10013;SDS011;45684;48.358;10.746;2022-11-23T09:33:08;2.77;;;2.10;;
10013;SDS011;45684;48.358;10.746;2022-11-23T09:35:35;2.70;;;2.10;;
10013;SDS011;45684;48.358;10.746;2022-11-23T09:38:09;3.80;;;2.30;;
10013;SDS011;45684;48.358;10.746;2022-11-23T09:40:39;2.07;;;1.70;;
10013;SDS011;45684;48.358;10.746;2022-11-23T09:43:16;1.73;;;1.60;;
10013;SDS011;45684;48.358;10.746;2022-11-23T09:46:01;2.37;;;1.60;;
10013;SDS011;45684;48.358;10.746;2022-11-23T09:48:46;1.93;;;1.70;;
10013;SDS011;45684;48.358;10.746;2022-11-23T09:51:24;2.60;;;2.40;;
10013;SDS011;45684;48.358;10.746;2022-11-23T09:53:53;2.77;;;2.37;;
10013;SDS011;45684;48.358;10.746;2022-11-23T09:56:26;2.23;;;1.70;;
10013;SDS011;45684;48.358;10.746;2022-11-23T09:58:57;3.27;;;2.00;;
10013;SDS011;45684;48.358;10.746;2022-11-23T10:01:27;3.70;;;2.30;;
10013;SDS011;45684;48.358;10.746;2022-11-23T10:03:58;3.00;;;2.50;;
10013;SDS011;45684;48.358;10.746;2022-11-23T10:06:26;5.13;;;3.73;;
10013;SDS011;45684;48.358;10.746;2022-11-23T10:09:00;6.60;;;5.87;;
10013;SDS011;45684;48.358;10.746;2022-11-23T10:11:57;3.10;;;2.80;;
10013;SDS011;45684;48.358;10.746;2022-11-23T10:14:38;1.63;;;1.53;;
10013;SDS011;45684;48.358;10.746;2022-11-23T10:17:17;3.50;;;1.67;;
10013;SDS011;45684;48.358;10.746;2022-11-23T10:20:02;1.43;;;1.33;;
10013;SDS011;45684;48.358;10.746;2022-11-23T10:22:47;2.10;;;1.50;;
10013;SDS011;45684;48.358;10.746;2022-11-23T10:25:24;3.93;;;1.57;;
10013;SDS011;45684;48.358;10.746;2022-11-23T10:28:05;2.23;;;1.70;;
10013;SDS011;45684;48.358;10.746;2022-11-23T10:30:40;1.77;;;1.67;;
10013;SDS011;45684;48.358;10.746;2022-11-23T10:33:12;2.60;;;1.83;;
10013;SDS011;45684;48.358;10.746;2022-11-23T10:35:50;4.67;;;2.10;;
10013;SDS011;45684;48.358;10.746;2022-11-23T10:38:18;2.37;;;2.00;;
10013;SDS011;45684;48.358;10.746;2022-11-23T10:40:50;3.73;;;2.63;;
10013;SDS011;45684;48.358;10.746;2022-11-23T10:43:28;2.27;;;2.00;;
10013;SDS011;45684;48.358;10.746;2022-11-23T10:48:51;3.10;;;2.57;;
10013;SDS011;45684;48.358;10.746;2022-11-23T10:51:25;4.00;;;2.37;;
10013;SDS011;45684;48.358;10.746;2022-11-23T10:53:57;3.17;;;2.50;;
10013;SDS011;45684;48.358;10.746;2022-11-23T10:56:31;2.83;;;2.20;;
10013;SDS011;45684;48.358;10.746;2022-11-23T10:58:59;4.20;;;2.30;;
10013;SDS011;45684;48.358;10.746;2022-11-23T11:01:27;3.90;;;2.07;;
10013;SDS011;45684;48.358;10.746;2022-11-23T11:03:59;4.23;;;2.13;;
10013;SDS011;45684;48.358;10.746;2022-11-23T11:06:32;3.57;;;1.90;;
10013;SDS011;45684;48.358;10.746;2022-11-23T11:09:16;2.90;;;2.20;;
10013;SDS011;45684;48.358;10.746;2022-11-23T11:11:46;2.73;;;2.13;;
10013;SDS011;45684;48.358;10.746;2022-11-23T11:14:20;2.00;;;1.80;;
10013;SDS011;45684;48.358;10.746;2022-11-23T11:16:49;4.10;;;2.10;;
10013;SDS011;45684;48.358;10.746;2022-11-23T11:19:21;2.97;;;1.97;;
10013;SDS011;45684;48.358;10.746;2022-11-23T11:21:57;3.50;;;2.00;;
10013;SDS011;45684;48.358;10.746;2022-11-23T11:24:27;3.30;;;2.20;;
10013;SDS011;45684;48.358;10.746;2022-11-23T11:27:01;3.50;;;2.00;;
10013;SDS011;45684;48.358;10.746;2022-11-23T11:29:33;1.50;;;1.40;;
10013;SDS011;45684;48.358;10.746;2022-11-23T11:32:13;1.50;;;1.40;;
10013;SDS011;45684;48.358;10.746;2022-11-23T11:34:48;2.90;;;2.07;;
10013;SDS011;45684;48.358;10.746;2022-11-23T11:37:27;4.13;;;2.10;;
10013;SDS011;45684;48.358;10.746;2022-11-23T11:40:02;2.77;;;1.93;;
10013;SDS011;45684;48.358;10.746;2022-11-23T11:42:37;2.00;;;1.60;;
10013;SDS011;45684;48.358;10.746;2022-11-23T11:45:11;2.40;;;1.80;;
10013;SDS011;45684;48.358;10.746;2022-11-23T11:47:50;5.77;;;3.73;;
10013;SDS011;45684;48.358;10.746;2022-11-23T11:50:24;3.27;;;2.17;;
10013;SDS011;45684;48.358;10.746;2022-11-23T11:53:01;2.70;;;2.00;;
10013;SDS011;45684;48.358;10.746;2022-11-23T11:55:35;1.80;;;1.50;;
10013;SDS011;45684;48.358;10.746;2022-11-23T11:58:15;2.00;;;1.30;;
10013;SDS011;45684;48.358;10.746;2022-11-23T12:00:44;2.27;;;1.10;;
10013;SDS011;45684;48.358;10.746;2022-11-23T12:03:18;1.70;;;1.10;;
10013;SDS011;45684;48.358;10.746;2022-11-23T12:05:50;1.70;;;1.30;;
10013;SDS011;45684;48.358;10.746;2022-11-23T12:08:23;1.63;;;1.10;;
10013;SDS011;45684;48.358;10.746;2022-11-23T12:10:59;2.33;;;1.17;;
10013;SDS011;45684;48.358;10.746;2022-11-23T12:13:31;1.40;;;1.30;;
10013;SDS011;45684;48.358;10.746;2022-11-23T12:16:02;1.40;;;1.27;;
10013;SDS011;45684;48.358;10.746;2022-11-23T12:18:46;1.03;;;0.93;;
10013;SDS011;45684;48.358;10.746;2022-11-23T12:24:45;1.43;;;0.93;;
10013;SDS011;45684;48.358;10.746;2022-11-23T12:27:26;1.53;;;1.20;;
10013;SDS011;45684;48.358;10.746;2022-11-23T12:30:20;1.87;;;1.23;;
10013;SDS011;45684;48.358;10.746;2022-11-23T12:32:59;1.77;;;1.00;;
10013;SDS011;45684;48.358;10.746;2022-11-23T12:35:47;2.07;;;1.20;;
10013;SDS011;45684;48.358;10.746;2022-11-23T12:38:35;1.33;;;1.00;;
10013;SDS011;45684;48.358;10.746;2022-11-23T12:41:17;1.93;;;1.20;;
10013;SDS011;45684;48.358;10.746;2022-11-23T12:46:57;1.47;;;0.90;;
10013;SDS011;45684;48.358;10.746;2022-11-23T12:49:35;0.87;;;0.77;;
10013;SDS011;45684;48.358;10.746;2022-11-23T12:52:12;0.67;;;0.60;;
10013;SDS011;45684;48.358;10.746;2022-11-23T12:54:55;2.10;;;0.73;;
10013;SDS011;45684;48.358;10.746;2022-11-23T12:57:48;2.10;;;1.10;;
10013;SDS011;45684;48.358;10.746;2022-11-23T13:00:27;1.00;;;0.80;;
10013;SDS011;45684;48.358;10.746;2022-11-23T13:09:11;1.20;;;0.73;;
10013;SDS011;45684;48.358;10.746;2022-11-23T13:11:58;2.10;;;1.03;;
10013;SDS011;45684;48.358;10.746;2022-11-23T13:14:43;1.80;;;0.80;;
10013;SDS011;45684;48.358;10.746;2022-11-23T13:17:23;2.60;;;1.00;;
10013;SDS011;45684;48.358;10.746;2022-11-23T13:23:07;0.97;;;0.90;;
10013;SDS011;45684;48.358;10.746;2022-11-23T13:25:35;1.83;;;1.10;;
10013;SDS011;45684;48.358;10.746;2022-11-23T13:28:03;2.67;;;1.70;;
10013;SDS011;45684;48.358;10.746;2022-11-23T13:30:36;2.40;;;2.20;;
10013;SDS011;45684;48.358;10.746;2022-11-23T13:33:27;1.60;;;1.50;;
10013;SDS011;45684;48.358;10.746;2022-11-23T13:36:04;2.70;;;1.23;;
10013;SDS011;45684;48.358;10.746;2022-11-23T13:38:44;1.40;;;0.90;;
10013;SDS011;45684;48.358;10.746;2022-11-23T13:44:21;1.03;;;0.93;;
10013;SDS011;45684;48.358;10.746;2022-11-23T13:47:06;2.37;;;1.43;;
10013;SDS011;45684;48.358;10.746;2022-11-23T13:49:48;1.87;;;1.13;;
10013;SDS011;45684;48.358;10.746;2022-11-23T13:52:24;1.50;;;1.40;;
10013;SDS011;45684;48.358;10.746;2022-11-23T13:54:55;1.70;;;1.30;;
10013;SDS011;45684;48.358;10.746;2022-11-23T13:57:34;1.63;;;1.40;;
10013;SDS011;45684;48.358;10.746;2022-11-23T14:06:17;1.50;;;1.40;;
10013;SDS011;45684;48.358;10.746;2022-11-23T14:08:58;1.40;;;1.30;;
10013;SDS011;45684;48.358;10.746;2022-11-23T14:11:35;2.13;;;1.80;;
10013;SDS011;45684;48.358;10.746;2022-11-23T14:14:13;2.80;;;1.83;;
10013;SDS011;45684;48.358;10.746;2022-11-23T14:16:57;1.77;;;1.37;;
10013;SDS011;45684;48.358;10.746;2022-11-23T14:19:41;1.40;;;1.30;;
10013;SDS011;45684;48.358;10.746;2022-11-23T14:22:20;1.97;;;1.30;;
10013;SDS011;45684;48.358;10.746;2022-11-23T14:25:10;1.90;;;1.13;;
10013;SDS011;45684;48.358;10.746;2022-11-23T14:27:51;0.80;;;0.80;;
10013;SDS011;45684;48.358;10.746;2022-11-23T14:30:34;1.47;;;1.10;;
10013;SDS011;45684;48.358;10.746;2022-11-23T14:33:23;1.97;;;1.60;;
10013;SDS011;45684;48.358;10.746;2022-11-23T14:36:05;3.63;;;2.03;;
10013;SDS011;45684;48.358;10.746;2022-11-23T14:41:36;3.23;;;2.50;;
10013;SDS011;45684;48.358;10.746;2022-11-23T14:44:07;2.13;;;1.93;;
10013;SDS011;45684;48.358;10.746;2022-11-23T14:49:28;2.77;;;1.63;;
10013;SDS011;45684;48.358;10.746;2022-11-23T14:51:58;1.70;;;1.60;;
10013;SDS011;45684;48.358;10.746;2022-11-23T14:54:31;2.67;;;2.37;;
10013;SDS011;45684;48.358;10.746;2022-11-23T14:57:00;4.13;;;2.43;;
10013;SDS011;45684;48.358;10.746;2022-11-23T14:59:33;2.40;;;2.20;;
10013;SDS011;45684;48.358;10.746;2022-11-23T15:02:12;2.20;;;2.00;;
10013;SDS011;45684;48.358;10.746;2022-11-23T15:04:53;3.17;;;2.23;;
10013;SDS011;45684;48.358;10.746;2022-11-23T15:07:34;2.37;;;2.17;;
10013;SDS011;45684;48.358;10.746;2022-11-23T15:10:19;2.80;;;2.13;;
10013;SDS011;45684;48.358;10.746;2022-11-23T15:13:15;2.13;;;1.93;;
10013;SDS011;45684;48.358;10.746;2022-11-23T15:15:49;1.93;;;1.83;;
10013;SDS011;45684;48.358;10.746;2022-11-23T15:18:26;3.33;;;2.07;;
10013;SDS011;45684;48.358;10.746;2022-11-23T15:20:58;4.17;;;2.60;;
10013;SDS011;45684;48.358;10.746;2022-11-23T15:23:32;3.27;;;2.17;;
10013;SDS011;45684;48.358;10.746;2022-11-23T15:26:05;2.43;;;1.20;;
10013;SDS011;45684;48.358;10.746;2022-11-23T15:29:00;1.53;;;1.10;;
10013;SDS011;45684;48.358;10.746;2022-11-23T15:31:32;3.30;;;1.37;;
10013;SDS011;45684;48.358;10.746;2022-11-23T15:34:04;2.87;;;1.00;;
10013;SDS011;45684;48.358;10.746;2022-11-23T15:36:40;3.30;;;1.10;;
10013;SDS011;45684;48.358;10.746;2022-11-23T15:39:16;1.00;;;0.77;;
10013;SDS011;45684;48.358;10.746;2022-11-23T15:41:49;1.87;;;1.20;;
10013;SDS011;45684;48.358;10.746;2022-11-23T15:44:21;1.03;;;0.93;;
10013;SDS011;45684;48.358;10.746;2022-11-23T15:46:53;1.17;;;0.90;;
10013;SDS011;45684;48.358;10.746;2022-11-23T15:49:25;1.00;;;0.90;;